<?xml version="1.0" encoding="UTF-8" standalone="no" ?>
<gpx xmlns="http://www.topografix.com/GPX/1/1" xmlns:xsi="http://www.w3.org/2001/XMLSchema-instance" xsi:schemaLocation="http://www.topografix.com/GPX/1/1 http://www.topografix.com/GPX/1/1/gpx.xsd" version="1.1" creator="VisuGPX - https://www.visugpx.com">
  <metadata>
    <name>Trotting 35 mns</name>
    <desc><![CDATA[petit trotting pour peu de temps]]></desc>
  </metadata>
  <trk>
    <name><![CDATA[Untitled]]></name>
    <trkseg>
      <trkpt lat="48.7077" lon="1.75829">
        <ele>172.80000305176</ele>
        <time>2011-09-22T07:29:07.000Z</time>
      </trkpt>
      <trkpt lat="48.70767" lon="1.75824">
        <ele>172.80000305176</ele>
        <time>2011-09-22T07:29:12.000Z</time>
      </trkpt>
      <trkpt lat="48.70763" lon="1.75817">
        <ele>172.80000305176</ele>
        <time>2011-09-22T07:29:17.000Z</time>
      </trkpt>
      <trkpt lat="48.70762" lon="1.75817">
        <ele>173</ele>
        <time>2011-09-22T07:29:18.000Z</time>
      </trkpt>
      <trkpt lat="48.70756" lon="1.75815">
        <ele>173</ele>
        <time>2011-09-22T07:29:23.000Z</time>
      </trkpt>
      <trkpt lat="48.70748" lon="1.75803">
        <ele>173.19999694824</ele>
        <time>2011-09-22T07:29:29.000Z</time>
      </trkpt>
      <trkpt lat="48.70746" lon="1.75801">
        <ele>173.19999694824</ele>
        <time>2011-09-22T07:29:32.000Z</time>
      </trkpt>
      <trkpt lat="48.70745" lon="1.75799">
        <ele>173.19999694824</ele>
        <time>2011-09-22T07:29:35.000Z</time>
      </trkpt>
      <trkpt lat="48.70744" lon="1.75798">
        <ele>173.19999694824</ele>
        <time>2011-09-22T07:29:36.000Z</time>
      </trkpt>
      <trkpt lat="48.7074" lon="1.75793">
        <ele>173.39999389648</ele>
        <time>2011-09-22T07:29:38.000Z</time>
      </trkpt>
      <trkpt lat="48.70735" lon="1.75785">
        <ele>173.39999389648</ele>
        <time>2011-09-22T07:29:44.000Z</time>
      </trkpt>
      <trkpt lat="48.70727" lon="1.75773">
        <ele>173.60000610352</ele>
        <time>2011-09-22T07:29:52.000Z</time>
      </trkpt>
      <trkpt lat="48.70721" lon="1.75764">
        <ele>173.60000610352</ele>
        <time>2011-09-22T07:29:58.000Z</time>
      </trkpt>
      <trkpt lat="48.70719" lon="1.75762">
        <ele>173.60000610352</ele>
        <time>2011-09-22T07:30:00.000Z</time>
      </trkpt>
      <trkpt lat="48.70713" lon="1.75756">
        <ele>173.80000305176</ele>
        <time>2011-09-22T07:30:05.000Z</time>
      </trkpt>
      <trkpt lat="48.70705" lon="1.75745">
        <ele>174</ele>
        <time>2011-09-22T07:30:13.000Z</time>
      </trkpt>
      <trkpt lat="48.70698" lon="1.75734">
        <ele>174</ele>
        <time>2011-09-22T07:30:21.000Z</time>
      </trkpt>
      <trkpt lat="48.7069" lon="1.75726">
        <ele>174</ele>
        <time>2011-09-22T07:30:28.000Z</time>
      </trkpt>
      <trkpt lat="48.70685" lon="1.75718">
        <ele>174.19999694824</ele>
        <time>2011-09-22T07:30:33.000Z</time>
      </trkpt>
      <trkpt lat="48.70681" lon="1.75712">
        <ele>174.19999694824</ele>
        <time>2011-09-22T07:30:36.000Z</time>
      </trkpt>
      <trkpt lat="48.70673" lon="1.75702">
        <ele>174.39999389648</ele>
        <time>2011-09-22T07:30:43.000Z</time>
      </trkpt>
      <trkpt lat="48.70672" lon="1.75701">
        <ele>174.39999389648</ele>
        <time>2011-09-22T07:30:44.000Z</time>
      </trkpt>
      <trkpt lat="48.70658" lon="1.75688">
        <ele>175.60000610352</ele>
        <time>2011-09-22T07:30:55.000Z</time>
      </trkpt>
      <trkpt lat="48.70649" lon="1.75678">
        <ele>176.80000305176</ele>
        <time>2011-09-22T07:31:03.000Z</time>
      </trkpt>
      <trkpt lat="48.70644" lon="1.75671">
        <ele>177.60000610352</ele>
        <time>2011-09-22T07:31:10.000Z</time>
      </trkpt>
      <trkpt lat="48.70638" lon="1.75664">
        <ele>178.19999694824</ele>
        <time>2011-09-22T07:31:16.000Z</time>
      </trkpt>
      <trkpt lat="48.70635" lon="1.75656">
        <ele>178.60000610352</ele>
        <time>2011-09-22T07:31:21.000Z</time>
      </trkpt>
      <trkpt lat="48.70628" lon="1.75647">
        <ele>179.19999694824</ele>
        <time>2011-09-22T07:31:29.000Z</time>
      </trkpt>
      <trkpt lat="48.70627" lon="1.75646">
        <ele>179.39999389648</ele>
        <time>2011-09-22T07:31:30.000Z</time>
      </trkpt>
      <trkpt lat="48.70623" lon="1.75641">
        <ele>179.80000305176</ele>
        <time>2011-09-22T07:31:34.000Z</time>
      </trkpt>
      <trkpt lat="48.70619" lon="1.75637">
        <ele>180.19999694824</ele>
        <time>2011-09-22T07:31:40.000Z</time>
      </trkpt>
      <trkpt lat="48.70614" lon="1.75632">
        <ele>180.80000305176</ele>
        <time>2011-09-22T07:31:46.000Z</time>
      </trkpt>
      <trkpt lat="48.70611" lon="1.75627">
        <ele>181</ele>
        <time>2011-09-22T07:31:50.000Z</time>
      </trkpt>
      <trkpt lat="48.7061" lon="1.75624">
        <ele>181</ele>
        <time>2011-09-22T07:31:52.000Z</time>
      </trkpt>
      <trkpt lat="48.70603" lon="1.75613">
        <ele>181.60000610352</ele>
        <time>2011-09-22T07:32:01.000Z</time>
      </trkpt>
      <trkpt lat="48.70601" lon="1.75609">
        <ele>181.60000610352</ele>
        <time>2011-09-22T07:32:03.000Z</time>
      </trkpt>
      <trkpt lat="48.706" lon="1.75607">
        <ele>181.80000305176</ele>
        <time>2011-09-22T07:32:05.000Z</time>
      </trkpt>
      <trkpt lat="48.70596" lon="1.75603">
        <ele>182.19999694824</ele>
        <time>2011-09-22T07:32:09.000Z</time>
      </trkpt>
      <trkpt lat="48.70594" lon="1.756">
        <ele>182.19999694824</ele>
        <time>2011-09-22T07:32:11.000Z</time>
      </trkpt>
      <trkpt lat="48.7059" lon="1.75597">
        <ele>182.60000610352</ele>
        <time>2011-09-22T07:32:15.000Z</time>
      </trkpt>
      <trkpt lat="48.70588" lon="1.75594">
        <ele>182.60000610352</ele>
        <time>2011-09-22T07:32:17.000Z</time>
      </trkpt>
      <trkpt lat="48.70579" lon="1.75585">
        <ele>183</ele>
        <time>2011-09-22T07:32:24.000Z</time>
      </trkpt>
      <trkpt lat="48.70576" lon="1.75584">
        <ele>183</ele>
        <time>2011-09-22T07:32:25.000Z</time>
      </trkpt>
      <trkpt lat="48.70567" lon="1.75579">
        <ele>182.80000305176</ele>
        <time>2011-09-22T07:32:33.000Z</time>
      </trkpt>
      <trkpt lat="48.70564" lon="1.75577">
        <ele>182.80000305176</ele>
        <time>2011-09-22T07:32:38.000Z</time>
      </trkpt>
      <trkpt lat="48.70556" lon="1.75575">
        <ele>182.80000305176</ele>
        <time>2011-09-22T07:32:44.000Z</time>
      </trkpt>
      <trkpt lat="48.70555" lon="1.75574">
        <ele>182.80000305176</ele>
        <time>2011-09-22T07:32:45.000Z</time>
      </trkpt>
      <trkpt lat="48.70549" lon="1.75577">
        <ele>183.19999694824</ele>
        <time>2011-09-22T07:32:50.000Z</time>
      </trkpt>
      <trkpt lat="48.70544" lon="1.75571">
        <ele>182.80000305176</ele>
        <time>2011-09-22T07:32:55.000Z</time>
      </trkpt>
      <trkpt lat="48.70543" lon="1.75567">
        <ele>182.60000610352</ele>
        <time>2011-09-22T07:32:57.000Z</time>
      </trkpt>
      <trkpt lat="48.70537" lon="1.75559">
        <ele>182.19999694824</ele>
        <time>2011-09-22T07:33:02.000Z</time>
      </trkpt>
      <trkpt lat="48.70535" lon="1.75554">
        <ele>182</ele>
        <time>2011-09-22T07:33:05.000Z</time>
      </trkpt>
      <trkpt lat="48.70531" lon="1.75547">
        <ele>181.60000610352</ele>
        <time>2011-09-22T07:33:09.000Z</time>
      </trkpt>
      <trkpt lat="48.70528" lon="1.75542">
        <ele>181.39999389648</ele>
        <time>2011-09-22T07:33:14.000Z</time>
      </trkpt>
      <trkpt lat="48.70522" lon="1.75533">
        <ele>181.19999694824</ele>
        <time>2011-09-22T07:33:20.000Z</time>
      </trkpt>
      <trkpt lat="48.70522" lon="1.75531">
        <ele>181</ele>
        <time>2011-09-22T07:33:21.000Z</time>
      </trkpt>
      <trkpt lat="48.70516" lon="1.75525">
        <ele>181</ele>
        <time>2011-09-22T07:33:26.000Z</time>
      </trkpt>
      <trkpt lat="48.70511" lon="1.75518">
        <ele>181</ele>
        <time>2011-09-22T07:33:31.000Z</time>
      </trkpt>
      <trkpt lat="48.70505" lon="1.75512">
        <ele>181.19999694824</ele>
        <time>2011-09-22T07:33:36.000Z</time>
      </trkpt>
      <trkpt lat="48.70499" lon="1.75504">
        <ele>181.19999694824</ele>
        <time>2011-09-22T07:33:42.000Z</time>
      </trkpt>
      <trkpt lat="48.70496" lon="1.75502">
        <ele>181.19999694824</ele>
        <time>2011-09-22T07:33:46.000Z</time>
      </trkpt>
      <trkpt lat="48.70487" lon="1.75494">
        <ele>181</ele>
        <time>2011-09-22T07:33:53.000Z</time>
      </trkpt>
      <trkpt lat="48.70486" lon="1.75491">
        <ele>181</ele>
        <time>2011-09-22T07:33:57.000Z</time>
      </trkpt>
      <trkpt lat="48.70482" lon="1.75487">
        <ele>180.80000305176</ele>
        <time>2011-09-22T07:34:01.000Z</time>
      </trkpt>
      <trkpt lat="48.70477" lon="1.75483">
        <ele>180.80000305176</ele>
        <time>2011-09-22T07:34:05.000Z</time>
      </trkpt>
      <trkpt lat="48.70472" lon="1.75474">
        <ele>180.60000610352</ele>
        <time>2011-09-22T07:34:12.000Z</time>
      </trkpt>
      <trkpt lat="48.70468" lon="1.75469">
        <ele>180.60000610352</ele>
        <time>2011-09-22T07:34:16.000Z</time>
      </trkpt>
      <trkpt lat="48.70465" lon="1.75468">
        <ele>180.80000305176</ele>
        <time>2011-09-22T07:34:18.000Z</time>
      </trkpt>
      <trkpt lat="48.70457" lon="1.75459">
        <ele>180.80000305176</ele>
        <time>2011-09-22T07:34:24.000Z</time>
      </trkpt>
      <trkpt lat="48.70453" lon="1.75458">
        <ele>181</ele>
        <time>2011-09-22T07:34:27.000Z</time>
      </trkpt>
      <trkpt lat="48.70446" lon="1.75451">
        <ele>181</ele>
        <time>2011-09-22T07:34:34.000Z</time>
      </trkpt>
      <trkpt lat="48.70442" lon="1.75447">
        <ele>181.19999694824</ele>
        <time>2011-09-22T07:34:39.000Z</time>
      </trkpt>
      <trkpt lat="48.70441" lon="1.75446">
        <ele>181.19999694824</ele>
        <time>2011-09-22T07:34:40.000Z</time>
      </trkpt>
      <trkpt lat="48.70436" lon="1.7544">
        <ele>181.19999694824</ele>
        <time>2011-09-22T07:34:47.000Z</time>
      </trkpt>
      <trkpt lat="48.70431" lon="1.75437">
        <ele>181.39999389648</ele>
        <time>2011-09-22T07:34:52.000Z</time>
      </trkpt>
      <trkpt lat="48.70425" lon="1.75432">
        <ele>181.80000305176</ele>
        <time>2011-09-22T07:34:58.000Z</time>
      </trkpt>
      <trkpt lat="48.70422" lon="1.7543">
        <ele>181.80000305176</ele>
        <time>2011-09-22T07:35:01.000Z</time>
      </trkpt>
      <trkpt lat="48.70419" lon="1.75427">
        <ele>182</ele>
        <time>2011-09-22T07:35:05.000Z</time>
      </trkpt>
      <trkpt lat="48.70408" lon="1.75426">
        <ele>182</ele>
        <time>2011-09-22T07:35:11.000Z</time>
      </trkpt>
      <trkpt lat="48.70407" lon="1.75425">
        <ele>182</ele>
        <time>2011-09-22T07:35:12.000Z</time>
      </trkpt>
      <trkpt lat="48.70396" lon="1.75418">
        <ele>181.60000610352</ele>
        <time>2011-09-22T07:35:19.000Z</time>
      </trkpt>
      <trkpt lat="48.70392" lon="1.75418">
        <ele>181.60000610352</ele>
        <time>2011-09-22T07:35:23.000Z</time>
      </trkpt>
      <trkpt lat="48.70389" lon="1.7541">
        <ele>181.39999389648</ele>
        <time>2011-09-22T07:35:27.000Z</time>
      </trkpt>
      <trkpt lat="48.70386" lon="1.754">
        <ele>181</ele>
        <time>2011-09-22T07:35:33.000Z</time>
      </trkpt>
      <trkpt lat="48.70385" lon="1.754">
        <ele>181</ele>
        <time>2011-09-22T07:35:34.000Z</time>
      </trkpt>
      <trkpt lat="48.70384" lon="1.75405">
        <ele>181.19999694824</ele>
        <time>2011-09-22T07:35:39.000Z</time>
      </trkpt>
      <trkpt lat="48.70379" lon="1.7541">
        <ele>181.19999694824</ele>
        <time>2011-09-22T07:35:45.000Z</time>
      </trkpt>
      <trkpt lat="48.70375" lon="1.7541">
        <ele>181.19999694824</ele>
        <time>2011-09-22T07:35:49.000Z</time>
      </trkpt>
      <trkpt lat="48.70373" lon="1.75403">
        <ele>181</ele>
        <time>2011-09-22T07:35:54.000Z</time>
      </trkpt>
      <trkpt lat="48.70371" lon="1.75405">
        <ele>181</ele>
        <time>2011-09-22T07:36:03.000Z</time>
      </trkpt>
      <trkpt lat="48.70371" lon="1.75411">
        <ele>181.19999694824</ele>
        <time>2011-09-22T07:36:16.000Z</time>
      </trkpt>
      <trkpt lat="48.70371" lon="1.75417">
        <ele>181.39999389648</ele>
        <time>2011-09-22T07:36:23.000Z</time>
      </trkpt>
      <trkpt lat="48.70372" lon="1.75416">
        <ele>181.39999389648</ele>
        <time>2011-09-22T07:36:26.000Z</time>
      </trkpt>
      <trkpt lat="48.70374" lon="1.75415">
        <ele>181.39999389648</ele>
        <time>2011-09-22T07:36:27.000Z</time>
      </trkpt>
      <trkpt lat="48.70379" lon="1.7541">
        <ele>181.19999694824</ele>
        <time>2011-09-22T07:36:32.000Z</time>
      </trkpt>
      <trkpt lat="48.70376" lon="1.75416">
        <ele>181.39999389648</ele>
        <time>2011-09-22T07:36:40.000Z</time>
      </trkpt>
      <trkpt lat="48.70373" lon="1.75407">
        <ele>181.19999694824</ele>
        <time>2011-09-22T07:36:46.000Z</time>
      </trkpt>
      <trkpt lat="48.70371" lon="1.75405">
        <ele>181.19999694824</ele>
        <time>2011-09-22T07:36:48.000Z</time>
      </trkpt>
      <trkpt lat="48.70369" lon="1.754">
        <ele>181</ele>
        <time>2011-09-22T07:36:51.000Z</time>
      </trkpt>
      <trkpt lat="48.70367" lon="1.7539">
        <ele>180.80000305176</ele>
        <time>2011-09-22T07:37:04.000Z</time>
      </trkpt>
      <trkpt lat="48.70364" lon="1.75388">
        <ele>180.80000305176</ele>
        <time>2011-09-22T07:37:08.000Z</time>
      </trkpt>
      <trkpt lat="48.70356" lon="1.75385">
        <ele>180.80000305176</ele>
        <time>2011-09-22T07:37:13.000Z</time>
      </trkpt>
      <trkpt lat="48.7035" lon="1.75381">
        <ele>180.80000305176</ele>
        <time>2011-09-22T07:37:19.000Z</time>
      </trkpt>
      <trkpt lat="48.70344" lon="1.75374">
        <ele>180.80000305176</ele>
        <time>2011-09-22T07:37:24.000Z</time>
      </trkpt>
      <trkpt lat="48.70338" lon="1.75366">
        <ele>180.80000305176</ele>
        <time>2011-09-22T07:37:33.000Z</time>
      </trkpt>
      <trkpt lat="48.70336" lon="1.75362">
        <ele>180.80000305176</ele>
        <time>2011-09-22T07:37:39.000Z</time>
      </trkpt>
      <trkpt lat="48.70331" lon="1.75361">
        <ele>180.80000305176</ele>
        <time>2011-09-22T07:37:45.000Z</time>
      </trkpt>
      <trkpt lat="48.70329" lon="1.75359">
        <ele>180.80000305176</ele>
        <time>2011-09-22T07:37:48.000Z</time>
      </trkpt>
      <trkpt lat="48.70319" lon="1.75354">
        <ele>180.60000610352</ele>
        <time>2011-09-22T07:37:55.000Z</time>
      </trkpt>
      <trkpt lat="48.70317" lon="1.75351">
        <ele>180.39999389648</ele>
        <time>2011-09-22T07:37:57.000Z</time>
      </trkpt>
      <trkpt lat="48.70315" lon="1.7535">
        <ele>180.39999389648</ele>
        <time>2011-09-22T07:37:59.000Z</time>
      </trkpt>
      <trkpt lat="48.70311" lon="1.75342">
        <ele>180.39999389648</ele>
        <time>2011-09-22T07:38:03.000Z</time>
      </trkpt>
      <trkpt lat="48.70312" lon="1.75335">
        <ele>180.39999389648</ele>
        <time>2011-09-22T07:38:07.000Z</time>
      </trkpt>
      <trkpt lat="48.70308" lon="1.75324">
        <ele>180.39999389648</ele>
        <time>2011-09-22T07:38:14.000Z</time>
      </trkpt>
      <trkpt lat="48.70304" lon="1.75319">
        <ele>180.39999389648</ele>
        <time>2011-09-22T07:38:19.000Z</time>
      </trkpt>
      <trkpt lat="48.70305" lon="1.75318">
        <ele>180.39999389648</ele>
        <time>2011-09-22T07:38:21.000Z</time>
      </trkpt>
      <trkpt lat="48.70308" lon="1.75316">
        <ele>180.39999389648</ele>
        <time>2011-09-22T07:38:23.000Z</time>
      </trkpt>
      <trkpt lat="48.70317" lon="1.75313">
        <ele>180.80000305176</ele>
        <time>2011-09-22T07:38:34.000Z</time>
      </trkpt>
      <trkpt lat="48.70322" lon="1.75309">
        <ele>181</ele>
        <time>2011-09-22T07:38:40.000Z</time>
      </trkpt>
      <trkpt lat="48.70322" lon="1.75308">
        <ele>181</ele>
        <time>2011-09-22T07:38:43.000Z</time>
      </trkpt>
      <trkpt lat="48.70313" lon="1.75312">
        <ele>180.60000610352</ele>
        <time>2011-09-22T07:38:54.000Z</time>
      </trkpt>
      <trkpt lat="48.70306" lon="1.75312">
        <ele>180.60000610352</ele>
        <time>2011-09-22T07:39:07.000Z</time>
      </trkpt>
      <trkpt lat="48.70305" lon="1.75309">
        <ele>180.60000610352</ele>
        <time>2011-09-22T07:39:09.000Z</time>
      </trkpt>
      <trkpt lat="48.70299" lon="1.75305">
        <ele>180.39999389648</ele>
        <time>2011-09-22T07:39:14.000Z</time>
      </trkpt>
      <trkpt lat="48.7029" lon="1.75298">
        <ele>180.19999694824</ele>
        <time>2011-09-22T07:39:19.000Z</time>
      </trkpt>
      <trkpt lat="48.70284" lon="1.75294">
        <ele>180.19999694824</ele>
        <time>2011-09-22T07:39:24.000Z</time>
      </trkpt>
      <trkpt lat="48.70276" lon="1.75283">
        <ele>180.19999694824</ele>
        <time>2011-09-22T07:39:29.000Z</time>
      </trkpt>
      <trkpt lat="48.70276" lon="1.75284">
        <ele>180.19999694824</ele>
        <time>2011-09-22T07:39:31.000Z</time>
      </trkpt>
      <trkpt lat="48.70267" lon="1.75283">
        <ele>180</ele>
        <time>2011-09-22T07:39:43.000Z</time>
      </trkpt>
      <trkpt lat="48.70259" lon="1.75276">
        <ele>179.80000305176</ele>
        <time>2011-09-22T07:39:49.000Z</time>
      </trkpt>
      <trkpt lat="48.70256" lon="1.75272">
        <ele>179.80000305176</ele>
        <time>2011-09-22T07:39:54.000Z</time>
      </trkpt>
      <trkpt lat="48.70255" lon="1.75271">
        <ele>179.80000305176</ele>
        <time>2011-09-22T07:39:55.000Z</time>
      </trkpt>
      <trkpt lat="48.70243" lon="1.75258">
        <ele>179.39999389648</ele>
        <time>2011-09-22T07:40:04.000Z</time>
      </trkpt>
      <trkpt lat="48.70231" lon="1.75249">
        <ele>179</ele>
        <time>2011-09-22T07:40:10.000Z</time>
      </trkpt>
      <trkpt lat="48.70229" lon="1.75247">
        <ele>178.80000305176</ele>
        <time>2011-09-22T07:40:16.000Z</time>
      </trkpt>
      <trkpt lat="48.70225" lon="1.75242">
        <ele>178.60000610352</ele>
        <time>2011-09-22T07:40:21.000Z</time>
      </trkpt>
      <trkpt lat="48.70221" lon="1.75246">
        <ele>178.39999389648</ele>
        <time>2011-09-22T07:40:26.000Z</time>
      </trkpt>
      <trkpt lat="48.70211" lon="1.75249">
        <ele>178</ele>
        <time>2011-09-22T07:40:33.000Z</time>
      </trkpt>
      <trkpt lat="48.70204" lon="1.75248">
        <ele>177.60000610352</ele>
        <time>2011-09-22T07:40:40.000Z</time>
      </trkpt>
      <trkpt lat="48.70196" lon="1.75254">
        <ele>177.39999389648</ele>
        <time>2011-09-22T07:40:46.000Z</time>
      </trkpt>
      <trkpt lat="48.70189" lon="1.75257">
        <ele>177</ele>
        <time>2011-09-22T07:40:53.000Z</time>
      </trkpt>
      <trkpt lat="48.70188" lon="1.75258">
        <ele>177</ele>
        <time>2011-09-22T07:40:54.000Z</time>
      </trkpt>
      <trkpt lat="48.70183" lon="1.75259">
        <ele>176.60000610352</ele>
        <time>2011-09-22T07:40:59.000Z</time>
      </trkpt>
      <trkpt lat="48.70172" lon="1.75262">
        <ele>176.19999694824</ele>
        <time>2011-09-22T07:41:09.000Z</time>
      </trkpt>
      <trkpt lat="48.70162" lon="1.75264">
        <ele>175.80000305176</ele>
        <time>2011-09-22T07:41:17.000Z</time>
      </trkpt>
      <trkpt lat="48.70158" lon="1.75269">
        <ele>175.80000305176</ele>
        <time>2011-09-22T07:41:23.000Z</time>
      </trkpt>
      <trkpt lat="48.70153" lon="1.75277">
        <ele>175.80000305176</ele>
        <time>2011-09-22T07:41:28.000Z</time>
      </trkpt>
      <trkpt lat="48.70153" lon="1.75278">
        <ele>175.80000305176</ele>
        <time>2011-09-22T07:41:29.000Z</time>
      </trkpt>
      <trkpt lat="48.70144" lon="1.75281">
        <ele>175.60000610352</ele>
        <time>2011-09-22T07:41:36.000Z</time>
      </trkpt>
      <trkpt lat="48.70141" lon="1.75281">
        <ele>175.60000610352</ele>
        <time>2011-09-22T07:41:38.000Z</time>
      </trkpt>
      <trkpt lat="48.70131" lon="1.75285">
        <ele>175.39999389648</ele>
        <time>2011-09-22T07:41:46.000Z</time>
      </trkpt>
      <trkpt lat="48.70124" lon="1.75289">
        <ele>175.19999694824</ele>
        <time>2011-09-22T07:41:52.000Z</time>
      </trkpt>
      <trkpt lat="48.70116" lon="1.75293">
        <ele>175</ele>
        <time>2011-09-22T07:41:58.000Z</time>
      </trkpt>
      <trkpt lat="48.70108" lon="1.75296">
        <ele>174.80000305176</ele>
        <time>2011-09-22T07:42:04.000Z</time>
      </trkpt>
      <trkpt lat="48.70097" lon="1.75301">
        <ele>174.39999389648</ele>
        <time>2011-09-22T07:42:11.000Z</time>
      </trkpt>
      <trkpt lat="48.70079" lon="1.75305">
        <ele>173.80000305176</ele>
        <time>2011-09-22T07:42:17.000Z</time>
      </trkpt>
      <trkpt lat="48.70066" lon="1.7531">
        <ele>173.39999389648</ele>
        <time>2011-09-22T07:42:22.000Z</time>
      </trkpt>
      <trkpt lat="48.7005" lon="1.75317">
        <ele>173</ele>
        <time>2011-09-22T07:42:27.000Z</time>
      </trkpt>
      <trkpt lat="48.70031" lon="1.75327">
        <ele>172.39999389648</ele>
        <time>2011-09-22T07:42:33.000Z</time>
      </trkpt>
      <trkpt lat="48.70013" lon="1.75333">
        <ele>172</ele>
        <time>2011-09-22T07:42:38.000Z</time>
      </trkpt>
      <trkpt lat="48.69996" lon="1.75346">
        <ele>171.39999389648</ele>
        <time>2011-09-22T07:42:44.000Z</time>
      </trkpt>
      <trkpt lat="48.69981" lon="1.75354">
        <ele>171.39999389648</ele>
        <time>2011-09-22T07:42:49.000Z</time>
      </trkpt>
      <trkpt lat="48.69959" lon="1.75365">
        <ele>171.60000610352</ele>
        <time>2011-09-22T07:42:56.000Z</time>
      </trkpt>
      <trkpt lat="48.69938" lon="1.75377">
        <ele>171.80000305176</ele>
        <time>2011-09-22T07:43:02.000Z</time>
      </trkpt>
      <trkpt lat="48.69921" lon="1.75381">
        <ele>172.19999694824</ele>
        <time>2011-09-22T07:43:07.000Z</time>
      </trkpt>
      <trkpt lat="48.69903" lon="1.75389">
        <ele>172</ele>
        <time>2011-09-22T07:43:13.000Z</time>
      </trkpt>
      <trkpt lat="48.69889" lon="1.75393">
        <ele>171.60000610352</ele>
        <time>2011-09-22T07:43:18.000Z</time>
      </trkpt>
      <trkpt lat="48.69872" lon="1.75401">
        <ele>171.19999694824</ele>
        <time>2011-09-22T07:43:24.000Z</time>
      </trkpt>
      <trkpt lat="48.69861" lon="1.75408">
        <ele>170.80000305176</ele>
        <time>2011-09-22T07:43:28.000Z</time>
      </trkpt>
      <trkpt lat="48.69847" lon="1.75413">
        <ele>170.39999389648</ele>
        <time>2011-09-22T07:43:33.000Z</time>
      </trkpt>
      <trkpt lat="48.69831" lon="1.7542">
        <ele>169.80000305176</ele>
        <time>2011-09-22T07:43:38.000Z</time>
      </trkpt>
      <trkpt lat="48.69812" lon="1.7543">
        <ele>168.60000610352</ele>
        <time>2011-09-22T07:43:44.000Z</time>
      </trkpt>
      <trkpt lat="48.69793" lon="1.75443">
        <ele>167.39999389648</ele>
        <time>2011-09-22T07:43:50.000Z</time>
      </trkpt>
      <trkpt lat="48.69772" lon="1.75454">
        <ele>166</ele>
        <time>2011-09-22T07:43:56.000Z</time>
      </trkpt>
      <trkpt lat="48.69751" lon="1.75465">
        <ele>164.60000610352</ele>
        <time>2011-09-22T07:44:02.000Z</time>
      </trkpt>
      <trkpt lat="48.69728" lon="1.75471">
        <ele>163.19999694824</ele>
        <time>2011-09-22T07:44:08.000Z</time>
      </trkpt>
      <trkpt lat="48.69709" lon="1.75479">
        <ele>162</ele>
        <time>2011-09-22T07:44:13.000Z</time>
      </trkpt>
      <trkpt lat="48.69692" lon="1.75487">
        <ele>160.80000305176</ele>
        <time>2011-09-22T07:44:18.000Z</time>
      </trkpt>
      <trkpt lat="48.69668" lon="1.75499">
        <ele>159</ele>
        <time>2011-09-22T07:44:25.000Z</time>
      </trkpt>
      <trkpt lat="48.69646" lon="1.7551">
        <ele>158</ele>
        <time>2011-09-22T07:44:32.000Z</time>
      </trkpt>
      <trkpt lat="48.69622" lon="1.75521">
        <ele>157.19999694824</ele>
        <time>2011-09-22T07:44:39.000Z</time>
      </trkpt>
      <trkpt lat="48.69604" lon="1.75529">
        <ele>156.60000610352</ele>
        <time>2011-09-22T07:44:44.000Z</time>
      </trkpt>
      <trkpt lat="48.69584" lon="1.7554">
        <ele>156</ele>
        <time>2011-09-22T07:44:50.000Z</time>
      </trkpt>
      <trkpt lat="48.69575" lon="1.75542">
        <ele>155.80000305176</ele>
        <time>2011-09-22T07:44:53.000Z</time>
      </trkpt>
      <trkpt lat="48.69549" lon="1.75553">
        <ele>155.60000610352</ele>
        <time>2011-09-22T07:45:01.000Z</time>
      </trkpt>
      <trkpt lat="48.69529" lon="1.75563">
        <ele>155.60000610352</ele>
        <time>2011-09-22T07:45:07.000Z</time>
      </trkpt>
      <trkpt lat="48.69506" lon="1.75575">
        <ele>155.80000305176</ele>
        <time>2011-09-22T07:45:14.000Z</time>
      </trkpt>
      <trkpt lat="48.69486" lon="1.75585">
        <ele>156.60000610352</ele>
        <time>2011-09-22T07:45:20.000Z</time>
      </trkpt>
      <trkpt lat="48.69462" lon="1.75595">
        <ele>158.19999694824</ele>
        <time>2011-09-22T07:45:27.000Z</time>
      </trkpt>
      <trkpt lat="48.69443" lon="1.75602">
        <ele>159.39999389648</ele>
        <time>2011-09-22T07:45:33.000Z</time>
      </trkpt>
      <trkpt lat="48.69421" lon="1.75604">
        <ele>160.39999389648</ele>
        <time>2011-09-22T07:45:39.000Z</time>
      </trkpt>
      <trkpt lat="48.69405" lon="1.75603">
        <ele>160.80000305176</ele>
        <time>2011-09-22T07:45:44.000Z</time>
      </trkpt>
      <trkpt lat="48.69384" lon="1.75599">
        <ele>160.80000305176</ele>
        <time>2011-09-22T07:45:50.000Z</time>
      </trkpt>
      <trkpt lat="48.69365" lon="1.75594">
        <ele>160.80000305176</ele>
        <time>2011-09-22T07:45:55.000Z</time>
      </trkpt>
      <trkpt lat="48.69351" lon="1.75592">
        <ele>161</ele>
        <time>2011-09-22T07:45:58.000Z</time>
      </trkpt>
      <trkpt lat="48.69338" lon="1.75588">
        <ele>161</ele>
        <time>2011-09-22T07:46:01.000Z</time>
      </trkpt>
      <trkpt lat="48.69328" lon="1.75592">
        <ele>160.80000305176</ele>
        <time>2011-09-22T07:46:05.000Z</time>
      </trkpt>
      <trkpt lat="48.69326" lon="1.75602">
        <ele>161</ele>
        <time>2011-09-22T07:46:07.000Z</time>
      </trkpt>
      <trkpt lat="48.69321" lon="1.75631">
        <ele>161.60000610352</ele>
        <time>2011-09-22T07:46:12.000Z</time>
      </trkpt>
      <trkpt lat="48.69317" lon="1.75653">
        <ele>161.80000305176</ele>
        <time>2011-09-22T07:46:16.000Z</time>
      </trkpt>
      <trkpt lat="48.6931" lon="1.75685">
        <ele>162</ele>
        <time>2011-09-22T07:46:21.000Z</time>
      </trkpt>
      <trkpt lat="48.69304" lon="1.75721">
        <ele>162.39999389648</ele>
        <time>2011-09-22T07:46:27.000Z</time>
      </trkpt>
      <trkpt lat="48.69301" lon="1.75732">
        <ele>162.39999389648</ele>
        <time>2011-09-22T07:46:29.000Z</time>
      </trkpt>
      <trkpt lat="48.69296" lon="1.75758">
        <ele>162.80000305176</ele>
        <time>2011-09-22T07:46:34.000Z</time>
      </trkpt>
      <trkpt lat="48.69291" lon="1.75781">
        <ele>163.19999694824</ele>
        <time>2011-09-22T07:46:38.000Z</time>
      </trkpt>
      <trkpt lat="48.6929" lon="1.75787">
        <ele>163.19999694824</ele>
        <time>2011-09-22T07:46:39.000Z</time>
      </trkpt>
      <trkpt lat="48.69286" lon="1.7582">
        <ele>164</ele>
        <time>2011-09-22T07:46:45.000Z</time>
      </trkpt>
      <trkpt lat="48.69284" lon="1.75825">
        <ele>164.19999694824</ele>
        <time>2011-09-22T07:46:46.000Z</time>
      </trkpt>
      <trkpt lat="48.69269" lon="1.75831">
        <ele>164</ele>
        <time>2011-09-22T07:46:51.000Z</time>
      </trkpt>
      <trkpt lat="48.69246" lon="1.7583">
        <ele>163.80000305176</ele>
        <time>2011-09-22T07:46:57.000Z</time>
      </trkpt>
      <trkpt lat="48.69228" lon="1.75826">
        <ele>164</ele>
        <time>2011-09-22T07:47:02.000Z</time>
      </trkpt>
      <trkpt lat="48.69206" lon="1.75827">
        <ele>164.39999389648</ele>
        <time>2011-09-22T07:47:08.000Z</time>
      </trkpt>
      <trkpt lat="48.69193" lon="1.75828">
        <ele>164.60000610352</ele>
        <time>2011-09-22T07:47:12.000Z</time>
      </trkpt>
      <trkpt lat="48.69166" lon="1.75828">
        <ele>165</ele>
        <time>2011-09-22T07:47:19.000Z</time>
      </trkpt>
      <trkpt lat="48.69149" lon="1.75827">
        <ele>165.19999694824</ele>
        <time>2011-09-22T07:47:24.000Z</time>
      </trkpt>
      <trkpt lat="48.6913" lon="1.75828">
        <ele>165.39999389648</ele>
        <time>2011-09-22T07:47:29.000Z</time>
      </trkpt>
      <trkpt lat="48.69111" lon="1.75826">
        <ele>165.60000610352</ele>
        <time>2011-09-22T07:47:34.000Z</time>
      </trkpt>
      <trkpt lat="48.69091" lon="1.75819">
        <ele>165.80000305176</ele>
        <time>2011-09-22T07:47:39.000Z</time>
      </trkpt>
      <trkpt lat="48.69066" lon="1.75811">
        <ele>166</ele>
        <time>2011-09-22T07:47:45.000Z</time>
      </trkpt>
      <trkpt lat="48.69062" lon="1.7581">
        <ele>166</ele>
        <time>2011-09-22T07:47:46.000Z</time>
      </trkpt>
      <trkpt lat="48.6904" lon="1.75803">
        <ele>166</ele>
        <time>2011-09-22T07:47:52.000Z</time>
      </trkpt>
      <trkpt lat="48.69015" lon="1.75791">
        <ele>165.80000305176</ele>
        <time>2011-09-22T07:47:59.000Z</time>
      </trkpt>
      <trkpt lat="48.68993" lon="1.75786">
        <ele>165.80000305176</ele>
        <time>2011-09-22T07:48:05.000Z</time>
      </trkpt>
      <trkpt lat="48.68973" lon="1.75789">
        <ele>166</ele>
        <time>2011-09-22T07:48:11.000Z</time>
      </trkpt>
      <trkpt lat="48.68951" lon="1.75796">
        <ele>166.19999694824</ele>
        <time>2011-09-22T07:48:17.000Z</time>
      </trkpt>
      <trkpt lat="48.68928" lon="1.75803">
        <ele>166.39999389648</ele>
        <time>2011-09-22T07:48:23.000Z</time>
      </trkpt>
      <trkpt lat="48.68911" lon="1.75802">
        <ele>166.39999389648</ele>
        <time>2011-09-22T07:48:28.000Z</time>
      </trkpt>
      <trkpt lat="48.6889" lon="1.75799">
        <ele>165.60000610352</ele>
        <time>2011-09-22T07:48:33.000Z</time>
      </trkpt>
      <trkpt lat="48.68866" lon="1.75794">
        <ele>164.60000610352</ele>
        <time>2011-09-22T07:48:39.000Z</time>
      </trkpt>
      <trkpt lat="48.68858" lon="1.75793">
        <ele>164.19999694824</ele>
        <time>2011-09-22T07:48:41.000Z</time>
      </trkpt>
      <trkpt lat="48.68848" lon="1.75791">
        <ele>164</ele>
        <time>2011-09-22T07:48:43.000Z</time>
      </trkpt>
      <trkpt lat="48.68841" lon="1.7579">
        <ele>163.60000610352</ele>
        <time>2011-09-22T07:48:45.000Z</time>
      </trkpt>
      <trkpt lat="48.68827" lon="1.75776">
        <ele>163</ele>
        <time>2011-09-22T07:48:49.000Z</time>
      </trkpt>
      <trkpt lat="48.68832" lon="1.75758">
        <ele>163</ele>
        <time>2011-09-22T07:48:52.000Z</time>
      </trkpt>
      <trkpt lat="48.68841" lon="1.75716">
        <ele>162.80000305176</ele>
        <time>2011-09-22T07:48:59.000Z</time>
      </trkpt>
      <trkpt lat="48.68845" lon="1.75694">
        <ele>162.60000610352</ele>
        <time>2011-09-22T07:49:03.000Z</time>
      </trkpt>
      <trkpt lat="48.68855" lon="1.75668">
        <ele>162.60000610352</ele>
        <time>2011-09-22T07:49:07.000Z</time>
      </trkpt>
      <trkpt lat="48.68863" lon="1.75648">
        <ele>162.60000610352</ele>
        <time>2011-09-22T07:49:10.000Z</time>
      </trkpt>
      <trkpt lat="48.68864" lon="1.75631">
        <ele>162.39999389648</ele>
        <time>2011-09-22T07:49:13.000Z</time>
      </trkpt>
      <trkpt lat="48.68871" lon="1.75602">
        <ele>162.19999694824</ele>
        <time>2011-09-22T07:49:18.000Z</time>
      </trkpt>
      <trkpt lat="48.68875" lon="1.75575">
        <ele>161.60000610352</ele>
        <time>2011-09-22T07:49:23.000Z</time>
      </trkpt>
      <trkpt lat="48.6888" lon="1.75546">
        <ele>160.80000305176</ele>
        <time>2011-09-22T07:49:28.000Z</time>
      </trkpt>
      <trkpt lat="48.68886" lon="1.75511">
        <ele>159.80000305176</ele>
        <time>2011-09-22T07:49:34.000Z</time>
      </trkpt>
      <trkpt lat="48.68889" lon="1.75485">
        <ele>159.19999694824</ele>
        <time>2011-09-22T07:49:39.000Z</time>
      </trkpt>
      <trkpt lat="48.68894" lon="1.75456">
        <ele>158.39999389648</ele>
        <time>2011-09-22T07:49:44.000Z</time>
      </trkpt>
      <trkpt lat="48.68899" lon="1.75417">
        <ele>157.19999694824</ele>
        <time>2011-09-22T07:49:51.000Z</time>
      </trkpt>
      <trkpt lat="48.68903" lon="1.75389">
        <ele>156</ele>
        <time>2011-09-22T07:49:56.000Z</time>
      </trkpt>
      <trkpt lat="48.68905" lon="1.75383">
        <ele>155.80000305176</ele>
        <time>2011-09-22T07:49:57.000Z</time>
      </trkpt>
      <trkpt lat="48.68922" lon="1.75353">
        <ele>154.80000305176</ele>
        <time>2011-09-22T07:50:02.000Z</time>
      </trkpt>
      <trkpt lat="48.68927" lon="1.75342">
        <ele>154.60000610352</ele>
        <time>2011-09-22T07:50:04.000Z</time>
      </trkpt>
      <trkpt lat="48.68936" lon="1.75325">
        <ele>154.39999389648</ele>
        <time>2011-09-22T07:50:08.000Z</time>
      </trkpt>
      <trkpt lat="48.68943" lon="1.75309">
        <ele>154.39999389648</ele>
        <time>2011-09-22T07:50:13.000Z</time>
      </trkpt>
      <trkpt lat="48.68944" lon="1.75307">
        <ele>154.39999389648</ele>
        <time>2011-09-22T07:50:14.000Z</time>
      </trkpt>
      <trkpt lat="48.68954" lon="1.75293">
        <ele>154.60000610352</ele>
        <time>2011-09-22T07:50:19.000Z</time>
      </trkpt>
      <trkpt lat="48.68969" lon="1.75279">
        <ele>154.80000305176</ele>
        <time>2011-09-22T07:50:23.000Z</time>
      </trkpt>
      <trkpt lat="48.68986" lon="1.7527">
        <ele>155</ele>
        <time>2011-09-22T07:50:28.000Z</time>
      </trkpt>
      <trkpt lat="48.69002" lon="1.75266">
        <ele>155.39999389648</ele>
        <time>2011-09-22T07:50:32.000Z</time>
      </trkpt>
      <trkpt lat="48.69019" lon="1.75256">
        <ele>156</ele>
        <time>2011-09-22T07:50:35.000Z</time>
      </trkpt>
      <trkpt lat="48.69036" lon="1.75248">
        <ele>156.60000610352</ele>
        <time>2011-09-22T07:50:39.000Z</time>
      </trkpt>
      <trkpt lat="48.69059" lon="1.7524">
        <ele>157.60000610352</ele>
        <time>2011-09-22T07:50:45.000Z</time>
      </trkpt>
      <trkpt lat="48.69067" lon="1.75236">
        <ele>158</ele>
        <time>2011-09-22T07:50:47.000Z</time>
      </trkpt>
      <trkpt lat="48.69095" lon="1.75223">
        <ele>160</ele>
        <time>2011-09-22T07:50:54.000Z</time>
      </trkpt>
      <trkpt lat="48.69126" lon="1.75208">
        <ele>163.39999389648</ele>
        <time>2011-09-22T07:51:02.000Z</time>
      </trkpt>
      <trkpt lat="48.69148" lon="1.75196">
        <ele>166.19999694824</ele>
        <time>2011-09-22T07:51:08.000Z</time>
      </trkpt>
      <trkpt lat="48.69161" lon="1.75187">
        <ele>168</ele>
        <time>2011-09-22T07:51:13.000Z</time>
      </trkpt>
      <trkpt lat="48.69177" lon="1.75181">
        <ele>169</ele>
        <time>2011-09-22T07:51:18.000Z</time>
      </trkpt>
      <trkpt lat="48.69192" lon="1.75176">
        <ele>169.60000610352</ele>
        <time>2011-09-22T07:51:23.000Z</time>
      </trkpt>
      <trkpt lat="48.69206" lon="1.75168">
        <ele>170.39999389648</ele>
        <time>2011-09-22T07:51:28.000Z</time>
      </trkpt>
      <trkpt lat="48.69227" lon="1.75159">
        <ele>171</ele>
        <time>2011-09-22T07:51:35.000Z</time>
      </trkpt>
      <trkpt lat="48.69245" lon="1.75151">
        <ele>171.39999389648</ele>
        <time>2011-09-22T07:51:41.000Z</time>
      </trkpt>
      <trkpt lat="48.69262" lon="1.75143">
        <ele>170.39999389648</ele>
        <time>2011-09-22T07:51:47.000Z</time>
      </trkpt>
      <trkpt lat="48.69271" lon="1.75141">
        <ele>169.80000305176</ele>
        <time>2011-09-22T07:51:53.000Z</time>
      </trkpt>
      <trkpt lat="48.69281" lon="1.75138">
        <ele>169</ele>
        <time>2011-09-22T07:51:59.000Z</time>
      </trkpt>
      <trkpt lat="48.69289" lon="1.75132">
        <ele>168.39999389648</ele>
        <time>2011-09-22T07:52:05.000Z</time>
      </trkpt>
      <trkpt lat="48.69299" lon="1.75126">
        <ele>167.60000610352</ele>
        <time>2011-09-22T07:52:10.000Z</time>
      </trkpt>
      <trkpt lat="48.69307" lon="1.75121">
        <ele>167.19999694824</ele>
        <time>2011-09-22T07:52:16.000Z</time>
      </trkpt>
      <trkpt lat="48.69308" lon="1.7512">
        <ele>167</ele>
        <time>2011-09-22T07:52:17.000Z</time>
      </trkpt>
      <trkpt lat="48.69313" lon="1.75118">
        <ele>166.80000305176</ele>
        <time>2011-09-22T07:52:23.000Z</time>
      </trkpt>
      <trkpt lat="48.69324" lon="1.75112">
        <ele>166.19999694824</ele>
        <time>2011-09-22T07:52:28.000Z</time>
      </trkpt>
      <trkpt lat="48.69349" lon="1.75098">
        <ele>166</ele>
        <time>2011-09-22T07:52:36.000Z</time>
      </trkpt>
      <trkpt lat="48.69371" lon="1.75091">
        <ele>166.60000610352</ele>
        <time>2011-09-22T07:52:42.000Z</time>
      </trkpt>
      <trkpt lat="48.69387" lon="1.75082">
        <ele>167.19999694824</ele>
        <time>2011-09-22T07:52:47.000Z</time>
      </trkpt>
      <trkpt lat="48.69406" lon="1.75072">
        <ele>167.60000610352</ele>
        <time>2011-09-22T07:52:53.000Z</time>
      </trkpt>
      <trkpt lat="48.69417" lon="1.75071">
        <ele>167.80000305176</ele>
        <time>2011-09-22T07:52:59.000Z</time>
      </trkpt>
      <trkpt lat="48.69426" lon="1.75067">
        <ele>167.80000305176</ele>
        <time>2011-09-22T07:53:05.000Z</time>
      </trkpt>
      <trkpt lat="48.69434" lon="1.7507">
        <ele>167.60000610352</ele>
        <time>2011-09-22T07:53:10.000Z</time>
      </trkpt>
      <trkpt lat="48.69443" lon="1.75084">
        <ele>167.19999694824</ele>
        <time>2011-09-22T07:53:15.000Z</time>
      </trkpt>
      <trkpt lat="48.69449" lon="1.751">
        <ele>166.60000610352</ele>
        <time>2011-09-22T07:53:18.000Z</time>
      </trkpt>
      <trkpt lat="48.69458" lon="1.75123">
        <ele>165.80000305176</ele>
        <time>2011-09-22T07:53:23.000Z</time>
      </trkpt>
      <trkpt lat="48.69464" lon="1.75152">
        <ele>164.80000305176</ele>
        <time>2011-09-22T07:53:29.000Z</time>
      </trkpt>
      <trkpt lat="48.69471" lon="1.75174">
        <ele>164</ele>
        <time>2011-09-22T07:53:33.000Z</time>
      </trkpt>
      <trkpt lat="48.69477" lon="1.75205">
        <ele>162.60000610352</ele>
        <time>2011-09-22T07:53:39.000Z</time>
      </trkpt>
      <trkpt lat="48.69483" lon="1.7523">
        <ele>161.60000610352</ele>
        <time>2011-09-22T07:53:44.000Z</time>
      </trkpt>
      <trkpt lat="48.69494" lon="1.75265">
        <ele>160</ele>
        <time>2011-09-22T07:53:50.000Z</time>
      </trkpt>
      <trkpt lat="48.69498" lon="1.75285">
        <ele>159.19999694824</ele>
        <time>2011-09-22T07:53:54.000Z</time>
      </trkpt>
      <trkpt lat="48.69499" lon="1.75292">
        <ele>158.80000305176</ele>
        <time>2011-09-22T07:53:55.000Z</time>
      </trkpt>
      <trkpt lat="48.69502" lon="1.75306">
        <ele>158.19999694824</ele>
        <time>2011-09-22T07:53:57.000Z</time>
      </trkpt>
      <trkpt lat="48.69508" lon="1.75341">
        <ele>156.80000305176</ele>
        <time>2011-09-22T07:54:02.000Z</time>
      </trkpt>
      <trkpt lat="48.69519" lon="1.75371">
        <ele>156.19999694824</ele>
        <time>2011-09-22T07:54:07.000Z</time>
      </trkpt>
      <trkpt lat="48.69525" lon="1.75395">
        <ele>155.80000305176</ele>
        <time>2011-09-22T07:54:11.000Z</time>
      </trkpt>
      <trkpt lat="48.69532" lon="1.75429">
        <ele>155.39999389648</ele>
        <time>2011-09-22T07:54:16.000Z</time>
      </trkpt>
      <trkpt lat="48.69539" lon="1.75447">
        <ele>155.39999389648</ele>
        <time>2011-09-22T07:54:19.000Z</time>
      </trkpt>
      <trkpt lat="48.69543" lon="1.75457">
        <ele>155.39999389648</ele>
        <time>2011-09-22T07:54:21.000Z</time>
      </trkpt>
      <trkpt lat="48.6955" lon="1.75488">
        <ele>155.19999694824</ele>
        <time>2011-09-22T07:54:26.000Z</time>
      </trkpt>
      <trkpt lat="48.69551" lon="1.75494">
        <ele>155.19999694824</ele>
        <time>2011-09-22T07:54:27.000Z</time>
      </trkpt>
      <trkpt lat="48.69554" lon="1.75506">
        <ele>155.19999694824</ele>
        <time>2011-09-22T07:54:29.000Z</time>
      </trkpt>
      <trkpt lat="48.69561" lon="1.75535">
        <ele>155.60000610352</ele>
        <time>2011-09-22T07:54:34.000Z</time>
      </trkpt>
      <trkpt lat="48.69571" lon="1.75543">
        <ele>155.80000305176</ele>
        <time>2011-09-22T07:54:38.000Z</time>
      </trkpt>
      <trkpt lat="48.69592" lon="1.75534">
        <ele>156.19999694824</ele>
        <time>2011-09-22T07:54:43.000Z</time>
      </trkpt>
      <trkpt lat="48.69618" lon="1.75521">
        <ele>157</ele>
        <time>2011-09-22T07:54:49.000Z</time>
      </trkpt>
      <trkpt lat="48.69664" lon="1.755">
        <ele>158.80000305176</ele>
        <time>2011-09-22T07:54:59.000Z</time>
      </trkpt>
      <trkpt lat="48.69694" lon="1.75487">
        <ele>160.80000305176</ele>
        <time>2011-09-22T07:55:06.000Z</time>
      </trkpt>
      <trkpt lat="48.69706" lon="1.75481">
        <ele>161.60000610352</ele>
        <time>2011-09-22T07:55:09.000Z</time>
      </trkpt>
      <trkpt lat="48.69722" lon="1.75476">
        <ele>162.80000305176</ele>
        <time>2011-09-22T07:55:13.000Z</time>
      </trkpt>
      <trkpt lat="48.69746" lon="1.75464">
        <ele>164.39999389648</ele>
        <time>2011-09-22T07:55:19.000Z</time>
      </trkpt>
      <trkpt lat="48.69754" lon="1.75459">
        <ele>165</ele>
        <time>2011-09-22T07:55:21.000Z</time>
      </trkpt>
      <trkpt lat="48.69777" lon="1.75446">
        <ele>166.60000610352</ele>
        <time>2011-09-22T07:55:27.000Z</time>
      </trkpt>
      <trkpt lat="48.69787" lon="1.75437">
        <ele>167.39999389648</ele>
        <time>2011-09-22T07:55:31.000Z</time>
      </trkpt>
      <trkpt lat="48.69787" lon="1.75434">
        <ele>167.60000610352</ele>
        <time>2011-09-22T07:55:32.000Z</time>
      </trkpt>
      <trkpt lat="48.69781" lon="1.75418">
        <ele>168</ele>
        <time>2011-09-22T07:55:36.000Z</time>
      </trkpt>
      <trkpt lat="48.69775" lon="1.75411">
        <ele>167.80000305176</ele>
        <time>2011-09-22T07:55:38.000Z</time>
      </trkpt>
      <trkpt lat="48.69767" lon="1.75405">
        <ele>167.60000610352</ele>
        <time>2011-09-22T07:55:43.000Z</time>
      </trkpt>
      <trkpt lat="48.69759" lon="1.754">
        <ele>167.19999694824</ele>
        <time>2011-09-22T07:55:48.000Z</time>
      </trkpt>
      <trkpt lat="48.6975" lon="1.75397">
        <ele>166.80000305176</ele>
        <time>2011-09-22T07:55:53.000Z</time>
      </trkpt>
      <trkpt lat="48.69744" lon="1.7538">
        <ele>166.60000610352</ele>
        <time>2011-09-22T07:55:59.000Z</time>
      </trkpt>
      <trkpt lat="48.69742" lon="1.75352">
        <ele>166.60000610352</ele>
        <time>2011-09-22T07:56:05.000Z</time>
      </trkpt>
      <trkpt lat="48.69745" lon="1.75334">
        <ele>166.80000305176</ele>
        <time>2011-09-22T07:56:09.000Z</time>
      </trkpt>
      <trkpt lat="48.69756" lon="1.75315">
        <ele>167.39999389648</ele>
        <time>2011-09-22T07:56:14.000Z</time>
      </trkpt>
      <trkpt lat="48.69758" lon="1.75294">
        <ele>167.80000305176</ele>
        <time>2011-09-22T07:56:18.000Z</time>
      </trkpt>
      <trkpt lat="48.69757" lon="1.75267">
        <ele>168.19999694824</ele>
        <time>2011-09-22T07:56:23.000Z</time>
      </trkpt>
      <trkpt lat="48.69765" lon="1.75235">
        <ele>168.80000305176</ele>
        <time>2011-09-22T07:56:29.000Z</time>
      </trkpt>
      <trkpt lat="48.69773" lon="1.75216">
        <ele>169.19999694824</ele>
        <time>2011-09-22T07:56:33.000Z</time>
      </trkpt>
      <trkpt lat="48.69779" lon="1.75192">
        <ele>169.39999389648</ele>
        <time>2011-09-22T07:56:38.000Z</time>
      </trkpt>
      <trkpt lat="48.69777" lon="1.75173">
        <ele>169.19999694824</ele>
        <time>2011-09-22T07:56:42.000Z</time>
      </trkpt>
      <trkpt lat="48.69782" lon="1.75148">
        <ele>169.19999694824</ele>
        <time>2011-09-22T07:56:47.000Z</time>
      </trkpt>
      <trkpt lat="48.69789" lon="1.75123">
        <ele>169</ele>
        <time>2011-09-22T07:56:52.000Z</time>
      </trkpt>
      <trkpt lat="48.69801" lon="1.7509">
        <ele>169.19999694824</ele>
        <time>2011-09-22T07:56:59.000Z</time>
      </trkpt>
      <trkpt lat="48.69809" lon="1.7507">
        <ele>169.19999694824</ele>
        <time>2011-09-22T07:57:03.000Z</time>
      </trkpt>
      <trkpt lat="48.69823" lon="1.75066">
        <ele>169.39999389648</ele>
        <time>2011-09-22T07:57:07.000Z</time>
      </trkpt>
      <trkpt lat="48.69836" lon="1.75064">
        <ele>169.80000305176</ele>
        <time>2011-09-22T07:57:11.000Z</time>
      </trkpt>
      <trkpt lat="48.69841" lon="1.75077">
        <ele>170.19999694824</ele>
        <time>2011-09-22T07:57:15.000Z</time>
      </trkpt>
      <trkpt lat="48.69835" lon="1.75067">
        <ele>169.80000305176</ele>
        <time>2011-09-22T07:57:22.000Z</time>
      </trkpt>
      <trkpt lat="48.6983" lon="1.75048">
        <ele>169.39999389648</ele>
        <time>2011-09-22T07:57:27.000Z</time>
      </trkpt>
      <trkpt lat="48.69828" lon="1.75029">
        <ele>169</ele>
        <time>2011-09-22T07:57:31.000Z</time>
      </trkpt>
      <trkpt lat="48.69826" lon="1.75016">
        <ele>168.80000305176</ele>
        <time>2011-09-22T07:57:34.000Z</time>
      </trkpt>
      <trkpt lat="48.69823" lon="1.74987">
        <ele>168.19999694824</ele>
        <time>2011-09-22T07:57:39.000Z</time>
      </trkpt>
      <trkpt lat="48.69819" lon="1.74958">
        <ele>167.60000610352</ele>
        <time>2011-09-22T07:57:44.000Z</time>
      </trkpt>
      <trkpt lat="48.69813" lon="1.74925">
        <ele>166.80000305176</ele>
        <time>2011-09-22T07:57:50.000Z</time>
      </trkpt>
      <trkpt lat="48.69811" lon="1.7489">
        <ele>167.39999389648</ele>
        <time>2011-09-22T07:57:56.000Z</time>
      </trkpt>
      <trkpt lat="48.69813" lon="1.74885">
        <ele>167.80000305176</ele>
        <time>2011-09-22T07:57:57.000Z</time>
      </trkpt>
      <trkpt lat="48.69825" lon="1.74873">
        <ele>168.60000610352</ele>
        <time>2011-09-22T07:58:01.000Z</time>
      </trkpt>
      <trkpt lat="48.69823" lon="1.74854">
        <ele>169.39999389648</ele>
        <time>2011-09-22T07:58:05.000Z</time>
      </trkpt>
      <trkpt lat="48.69822" lon="1.74849">
        <ele>169.39999389648</ele>
        <time>2011-09-22T07:58:06.000Z</time>
      </trkpt>
      <trkpt lat="48.69811" lon="1.74809">
        <ele>169.80000305176</ele>
        <time>2011-09-22T07:58:14.000Z</time>
      </trkpt>
      <trkpt lat="48.69805" lon="1.7478">
        <ele>170</ele>
        <time>2011-09-22T07:58:20.000Z</time>
      </trkpt>
      <trkpt lat="48.69805" lon="1.74774">
        <ele>170</ele>
        <time>2011-09-22T07:58:22.000Z</time>
      </trkpt>
      <trkpt lat="48.69797" lon="1.74753">
        <ele>169.60000610352</ele>
        <time>2011-09-22T07:58:28.000Z</time>
      </trkpt>
      <trkpt lat="48.69789" lon="1.74725">
        <ele>167.80000305176</ele>
        <time>2011-09-22T07:58:34.000Z</time>
      </trkpt>
      <trkpt lat="48.69784" lon="1.74699">
        <ele>166.60000610352</ele>
        <time>2011-09-22T07:58:39.000Z</time>
      </trkpt>
      <trkpt lat="48.69779" lon="1.74674">
        <ele>165.39999389648</ele>
        <time>2011-09-22T07:58:44.000Z</time>
      </trkpt>
      <trkpt lat="48.69771" lon="1.74639">
        <ele>163.80000305176</ele>
        <time>2011-09-22T07:58:51.000Z</time>
      </trkpt>
      <trkpt lat="48.69767" lon="1.74622">
        <ele>162.80000305176</ele>
        <time>2011-09-22T07:58:56.000Z</time>
      </trkpt>
      <trkpt lat="48.69765" lon="1.74615">
        <ele>162.60000610352</ele>
        <time>2011-09-22T07:58:59.000Z</time>
      </trkpt>
      <trkpt lat="48.69762" lon="1.74606">
        <ele>162</ele>
        <time>2011-09-22T07:59:04.000Z</time>
      </trkpt>
      <trkpt lat="48.69757" lon="1.74591">
        <ele>161.39999389648</ele>
        <time>2011-09-22T07:59:10.000Z</time>
      </trkpt>
      <trkpt lat="48.69751" lon="1.74575">
        <ele>161.19999694824</ele>
        <time>2011-09-22T07:59:14.000Z</time>
      </trkpt>
      <trkpt lat="48.69748" lon="1.74556">
        <ele>161.60000610352</ele>
        <time>2011-09-22T07:59:18.000Z</time>
      </trkpt>
      <trkpt lat="48.69744" lon="1.74528">
        <ele>162.19999694824</ele>
        <time>2011-09-22T07:59:24.000Z</time>
      </trkpt>
      <trkpt lat="48.69738" lon="1.74501">
        <ele>163</ele>
        <time>2011-09-22T07:59:30.000Z</time>
      </trkpt>
      <trkpt lat="48.69738" lon="1.74488">
        <ele>163.39999389648</ele>
        <time>2011-09-22T07:59:33.000Z</time>
      </trkpt>
      <trkpt lat="48.69731" lon="1.74471">
        <ele>164</ele>
        <time>2011-09-22T07:59:38.000Z</time>
      </trkpt>
      <trkpt lat="48.69723" lon="1.74436">
        <ele>165.19999694824</ele>
        <time>2011-09-22T07:59:45.000Z</time>
      </trkpt>
      <trkpt lat="48.69715" lon="1.744">
        <ele>166.60000610352</ele>
        <time>2011-09-22T07:59:52.000Z</time>
      </trkpt>
      <trkpt lat="48.69713" lon="1.74396">
        <ele>166.80000305176</ele>
        <time>2011-09-22T07:59:53.000Z</time>
      </trkpt>
      <trkpt lat="48.69706" lon="1.74376">
        <ele>167.39999389648</ele>
        <time>2011-09-22T07:59:58.000Z</time>
      </trkpt>
      <trkpt lat="48.69701" lon="1.74352">
        <ele>168.19999694824</ele>
        <time>2011-09-22T08:00:03.000Z</time>
      </trkpt>
      <trkpt lat="48.69696" lon="1.74329">
        <ele>169</ele>
        <time>2011-09-22T08:00:08.000Z</time>
      </trkpt>
      <trkpt lat="48.69693" lon="1.74308">
        <ele>169.39999389648</ele>
        <time>2011-09-22T08:00:12.000Z</time>
      </trkpt>
      <trkpt lat="48.69688" lon="1.74285">
        <ele>169.80000305176</ele>
        <time>2011-09-22T08:00:17.000Z</time>
      </trkpt>
      <trkpt lat="48.69681" lon="1.74259">
        <ele>170.39999389648</ele>
        <time>2011-09-22T08:00:22.000Z</time>
      </trkpt>
      <trkpt lat="48.69677" lon="1.74233">
        <ele>170.60000610352</ele>
        <time>2011-09-22T08:00:27.000Z</time>
      </trkpt>
      <trkpt lat="48.69671" lon="1.74204">
        <ele>170.80000305176</ele>
        <time>2011-09-22T08:00:33.000Z</time>
      </trkpt>
      <trkpt lat="48.69663" lon="1.74187">
        <ele>171.19999694824</ele>
        <time>2011-09-22T08:00:37.000Z</time>
      </trkpt>
      <trkpt lat="48.69655" lon="1.74162">
        <ele>171.80000305176</ele>
        <time>2011-09-22T08:00:42.000Z</time>
      </trkpt>
      <trkpt lat="48.69647" lon="1.74137">
        <ele>172.60000610352</ele>
        <time>2011-09-22T08:00:47.000Z</time>
      </trkpt>
      <trkpt lat="48.69645" lon="1.74117">
        <ele>173</ele>
        <time>2011-09-22T08:00:51.000Z</time>
      </trkpt>
      <trkpt lat="48.69639" lon="1.74091">
        <ele>173.80000305176</ele>
        <time>2011-09-22T08:00:57.000Z</time>
      </trkpt>
      <trkpt lat="48.69632" lon="1.74065">
        <ele>174.80000305176</ele>
        <time>2011-09-22T08:01:03.000Z</time>
      </trkpt>
      <trkpt lat="48.69625" lon="1.74038">
        <ele>176</ele>
        <time>2011-09-22T08:01:09.000Z</time>
      </trkpt>
      <trkpt lat="48.69621" lon="1.74017">
        <ele>176.80000305176</ele>
        <time>2011-09-22T08:01:13.000Z</time>
      </trkpt>
      <trkpt lat="48.69615" lon="1.73992">
        <ele>177.80000305176</ele>
        <time>2011-09-22T08:01:18.000Z</time>
      </trkpt>
      <trkpt lat="48.69611" lon="1.73987">
        <ele>178.19999694824</ele>
        <time>2011-09-22T08:01:20.000Z</time>
      </trkpt>
      <trkpt lat="48.69602" lon="1.73997">
        <ele>178.60000610352</ele>
        <time>2011-09-22T08:01:24.000Z</time>
      </trkpt>
      <trkpt lat="48.69598" lon="1.74019">
        <ele>178.39999389648</ele>
        <time>2011-09-22T08:01:29.000Z</time>
      </trkpt>
      <trkpt lat="48.69588" lon="1.74038">
        <ele>178.60000610352</ele>
        <time>2011-09-22T08:01:34.000Z</time>
      </trkpt>
      <trkpt lat="48.69579" lon="1.74053">
        <ele>178.80000305176</ele>
        <time>2011-09-22T08:01:38.000Z</time>
      </trkpt>
      <trkpt lat="48.69572" lon="1.74069">
        <ele>178.60000610352</ele>
        <time>2011-09-22T08:01:42.000Z</time>
      </trkpt>
      <trkpt lat="48.69562" lon="1.74088">
        <ele>178.39999389648</ele>
        <time>2011-09-22T08:01:47.000Z</time>
      </trkpt>
      <trkpt lat="48.69551" lon="1.74114">
        <ele>178.19999694824</ele>
        <time>2011-09-22T08:01:53.000Z</time>
      </trkpt>
      <trkpt lat="48.69542" lon="1.74139">
        <ele>177.80000305176</ele>
        <time>2011-09-22T08:01:58.000Z</time>
      </trkpt>
      <trkpt lat="48.69529" lon="1.74164">
        <ele>177.60000610352</ele>
        <time>2011-09-22T08:02:04.000Z</time>
      </trkpt>
      <trkpt lat="48.69517" lon="1.74192">
        <ele>176.39999389648</ele>
        <time>2011-09-22T08:02:10.000Z</time>
      </trkpt>
      <trkpt lat="48.69503" lon="1.74222">
        <ele>174.60000610352</ele>
        <time>2011-09-22T08:02:17.000Z</time>
      </trkpt>
      <trkpt lat="48.69492" lon="1.74246">
        <ele>172.19999694824</ele>
        <time>2011-09-22T08:02:23.000Z</time>
      </trkpt>
      <trkpt lat="48.69482" lon="1.74269">
        <ele>171.19999694824</ele>
        <time>2011-09-22T08:02:28.000Z</time>
      </trkpt>
      <trkpt lat="48.69467" lon="1.74302">
        <ele>170.19999694824</ele>
        <time>2011-09-22T08:02:35.000Z</time>
      </trkpt>
      <trkpt lat="48.69452" lon="1.7433">
        <ele>169.19999694824</ele>
        <time>2011-09-22T08:02:42.000Z</time>
      </trkpt>
      <trkpt lat="48.69441" lon="1.7435">
        <ele>168.60000610352</ele>
        <time>2011-09-22T08:02:47.000Z</time>
      </trkpt>
      <trkpt lat="48.69438" lon="1.74371">
        <ele>169</ele>
        <time>2011-09-22T08:02:52.000Z</time>
      </trkpt>
      <trkpt lat="48.69441" lon="1.74388">
        <ele>169.60000610352</ele>
        <time>2011-09-22T08:02:56.000Z</time>
      </trkpt>
      <trkpt lat="48.69444" lon="1.74406">
        <ele>170</ele>
        <time>2011-09-22T08:03:00.000Z</time>
      </trkpt>
      <trkpt lat="48.69446" lon="1.7442">
        <ele>170.19999694824</ele>
        <time>2011-09-22T08:03:03.000Z</time>
      </trkpt>
      <trkpt lat="48.69451" lon="1.74453">
        <ele>170.39999389648</ele>
        <time>2011-09-22T08:03:10.000Z</time>
      </trkpt>
      <trkpt lat="48.69454" lon="1.74469">
        <ele>170.39999389648</ele>
        <time>2011-09-22T08:03:13.000Z</time>
      </trkpt>
      <trkpt lat="48.69459" lon="1.74493">
        <ele>170.39999389648</ele>
        <time>2011-09-22T08:03:18.000Z</time>
      </trkpt>
      <trkpt lat="48.69461" lon="1.74497">
        <ele>170.39999389648</ele>
        <time>2011-09-22T08:03:19.000Z</time>
      </trkpt>
      <trkpt lat="48.69472" lon="1.74538">
        <ele>168.60000610352</ele>
        <time>2011-09-22T08:03:27.000Z</time>
      </trkpt>
      <trkpt lat="48.6948" lon="1.74564">
        <ele>167.60000610352</ele>
        <time>2011-09-22T08:03:32.000Z</time>
      </trkpt>
      <trkpt lat="48.69488" lon="1.74588">
        <ele>166.39999389648</ele>
        <time>2011-09-22T08:03:37.000Z</time>
      </trkpt>
      <trkpt lat="48.69492" lon="1.74611">
        <ele>165.39999389648</ele>
        <time>2011-09-22T08:03:42.000Z</time>
      </trkpt>
      <trkpt lat="48.69497" lon="1.74642">
        <ele>164</ele>
        <time>2011-09-22T08:03:48.000Z</time>
      </trkpt>
      <trkpt lat="48.69504" lon="1.74669">
        <ele>162.60000610352</ele>
        <time>2011-09-22T08:03:53.000Z</time>
      </trkpt>
      <trkpt lat="48.69508" lon="1.74693">
        <ele>161.60000610352</ele>
        <time>2011-09-22T08:03:58.000Z</time>
      </trkpt>
      <trkpt lat="48.69508" lon="1.74713">
        <ele>160.80000305176</ele>
        <time>2011-09-22T08:04:02.000Z</time>
      </trkpt>
      <trkpt lat="48.69513" lon="1.74737">
        <ele>159.80000305176</ele>
        <time>2011-09-22T08:04:06.000Z</time>
      </trkpt>
      <trkpt lat="48.69517" lon="1.74762">
        <ele>159.19999694824</ele>
        <time>2011-09-22T08:04:10.000Z</time>
      </trkpt>
      <trkpt lat="48.69523" lon="1.7478">
        <ele>159.19999694824</ele>
        <time>2011-09-22T08:04:13.000Z</time>
      </trkpt>
      <trkpt lat="48.69532" lon="1.74804">
        <ele>159</ele>
        <time>2011-09-22T08:04:17.000Z</time>
      </trkpt>
      <trkpt lat="48.69538" lon="1.74837">
        <ele>159.19999694824</ele>
        <time>2011-09-22T08:04:23.000Z</time>
      </trkpt>
      <trkpt lat="48.69545" lon="1.74875">
        <ele>160.19999694824</ele>
        <time>2011-09-22T08:04:30.000Z</time>
      </trkpt>
      <trkpt lat="48.69549" lon="1.74897">
        <ele>160.60000610352</ele>
        <time>2011-09-22T08:04:34.000Z</time>
      </trkpt>
      <trkpt lat="48.69555" lon="1.74923">
        <ele>160.80000305176</ele>
        <time>2011-09-22T08:04:39.000Z</time>
      </trkpt>
      <trkpt lat="48.69562" lon="1.74957">
        <ele>160.60000610352</ele>
        <time>2011-09-22T08:04:45.000Z</time>
      </trkpt>
      <trkpt lat="48.69569" lon="1.74989">
        <ele>160.39999389648</ele>
        <time>2011-09-22T08:04:51.000Z</time>
      </trkpt>
      <trkpt lat="48.69569" lon="1.74993">
        <ele>160.39999389648</ele>
        <time>2011-09-22T08:04:52.000Z</time>
      </trkpt>
      <trkpt lat="48.69579" lon="1.74994">
        <ele>159.39999389648</ele>
        <time>2011-09-22T08:04:55.000Z</time>
      </trkpt>
      <trkpt lat="48.69599" lon="1.74984">
        <ele>159.39999389648</ele>
        <time>2011-09-22T08:05:00.000Z</time>
      </trkpt>
      <trkpt lat="48.69622" lon="1.74973">
        <ele>160.39999389648</ele>
        <time>2011-09-22T08:05:06.000Z</time>
      </trkpt>
      <trkpt lat="48.69626" lon="1.74972">
        <ele>160.60000610352</ele>
        <time>2011-09-22T08:05:07.000Z</time>
      </trkpt>
      <trkpt lat="48.69646" lon="1.74964">
        <ele>161.39999389648</ele>
        <time>2011-09-22T08:05:12.000Z</time>
      </trkpt>
      <trkpt lat="48.69662" lon="1.74956">
        <ele>162.19999694824</ele>
        <time>2011-09-22T08:05:16.000Z</time>
      </trkpt>
      <trkpt lat="48.6968" lon="1.74947">
        <ele>162.80000305176</ele>
        <time>2011-09-22T08:05:21.000Z</time>
      </trkpt>
      <trkpt lat="48.697" lon="1.74935">
        <ele>163.60000610352</ele>
        <time>2011-09-22T08:05:26.000Z</time>
      </trkpt>
      <trkpt lat="48.69704" lon="1.74933">
        <ele>163.80000305176</ele>
        <time>2011-09-22T08:05:27.000Z</time>
      </trkpt>
      <trkpt lat="48.69715" lon="1.74926">
        <ele>164.19999694824</ele>
        <time>2011-09-22T08:05:30.000Z</time>
      </trkpt>
      <trkpt lat="48.69745" lon="1.74914">
        <ele>165.60000610352</ele>
        <time>2011-09-22T08:05:38.000Z</time>
      </trkpt>
      <trkpt lat="48.69767" lon="1.74902">
        <ele>166.19999694824</ele>
        <time>2011-09-22T08:05:44.000Z</time>
      </trkpt>
      <trkpt lat="48.69786" lon="1.74895">
        <ele>166.60000610352</ele>
        <time>2011-09-22T08:05:49.000Z</time>
      </trkpt>
      <trkpt lat="48.69807" lon="1.74893">
        <ele>167.19999694824</ele>
        <time>2011-09-22T08:05:55.000Z</time>
      </trkpt>
      <trkpt lat="48.69815" lon="1.74924">
        <ele>166.80000305176</ele>
        <time>2011-09-22T08:06:01.000Z</time>
      </trkpt>
      <trkpt lat="48.69819" lon="1.74945">
        <ele>167.19999694824</ele>
        <time>2011-09-22T08:06:05.000Z</time>
      </trkpt>
      <trkpt lat="48.69821" lon="1.74965">
        <ele>167.80000305176</ele>
        <time>2011-09-22T08:06:09.000Z</time>
      </trkpt>
      <trkpt lat="48.69822" lon="1.74995">
        <ele>168.39999389648</ele>
        <time>2011-09-22T08:06:14.000Z</time>
      </trkpt>
      <trkpt lat="48.69826" lon="1.75019">
        <ele>168.80000305176</ele>
        <time>2011-09-22T08:06:18.000Z</time>
      </trkpt>
      <trkpt lat="48.6983" lon="1.75054">
        <ele>169.39999389648</ele>
        <time>2011-09-22T08:06:24.000Z</time>
      </trkpt>
      <trkpt lat="48.69835" lon="1.75094">
        <ele>170</ele>
        <time>2011-09-22T08:06:31.000Z</time>
      </trkpt>
      <trkpt lat="48.69842" lon="1.75121">
        <ele>170.39999389648</ele>
        <time>2011-09-22T08:06:36.000Z</time>
      </trkpt>
      <trkpt lat="48.69848" lon="1.75151">
        <ele>171</ele>
        <time>2011-09-22T08:06:41.000Z</time>
      </trkpt>
      <trkpt lat="48.69851" lon="1.75168">
        <ele>171.39999389648</ele>
        <time>2011-09-22T08:06:44.000Z</time>
      </trkpt>
      <trkpt lat="48.69852" lon="1.75196">
        <ele>172.19999694824</ele>
        <time>2011-09-22T08:06:49.000Z</time>
      </trkpt>
      <trkpt lat="48.69854" lon="1.7522">
        <ele>172.80000305176</ele>
        <time>2011-09-22T08:06:54.000Z</time>
      </trkpt>
      <trkpt lat="48.6986" lon="1.75248">
        <ele>173.60000610352</ele>
        <time>2011-09-22T08:06:59.000Z</time>
      </trkpt>
      <trkpt lat="48.69863" lon="1.75276">
        <ele>173.19999694824</ele>
        <time>2011-09-22T08:07:04.000Z</time>
      </trkpt>
      <trkpt lat="48.69869" lon="1.75298">
        <ele>173</ele>
        <time>2011-09-22T08:07:08.000Z</time>
      </trkpt>
      <trkpt lat="48.69876" lon="1.75328">
        <ele>172.60000610352</ele>
        <time>2011-09-22T08:07:14.000Z</time>
      </trkpt>
      <trkpt lat="48.69883" lon="1.75357">
        <ele>172</ele>
        <time>2011-09-22T08:07:19.000Z</time>
      </trkpt>
      <trkpt lat="48.6989" lon="1.75378">
        <ele>171.80000305176</ele>
        <time>2011-09-22T08:07:23.000Z</time>
      </trkpt>
      <trkpt lat="48.69901" lon="1.75386">
        <ele>172</ele>
        <time>2011-09-22T08:07:27.000Z</time>
      </trkpt>
      <trkpt lat="48.69922" lon="1.75377">
        <ele>172.19999694824</ele>
        <time>2011-09-22T08:07:33.000Z</time>
      </trkpt>
      <trkpt lat="48.69925" lon="1.75375">
        <ele>172.19999694824</ele>
        <time>2011-09-22T08:07:34.000Z</time>
      </trkpt>
      <trkpt lat="48.69943" lon="1.75365">
        <ele>172</ele>
        <time>2011-09-22T08:07:39.000Z</time>
      </trkpt>
      <trkpt lat="48.69964" lon="1.75354">
        <ele>171.80000305176</ele>
        <time>2011-09-22T08:07:45.000Z</time>
      </trkpt>
      <trkpt lat="48.69983" lon="1.75342">
        <ele>171.80000305176</ele>
        <time>2011-09-22T08:07:50.000Z</time>
      </trkpt>
      <trkpt lat="48.70002" lon="1.75335">
        <ele>171.80000305176</ele>
        <time>2011-09-22T08:07:55.000Z</time>
      </trkpt>
      <trkpt lat="48.7002" lon="1.75326">
        <ele>172.39999389648</ele>
        <time>2011-09-22T08:08:00.000Z</time>
      </trkpt>
      <trkpt lat="48.70037" lon="1.75318">
        <ele>172.80000305176</ele>
        <time>2011-09-22T08:08:05.000Z</time>
      </trkpt>
      <trkpt lat="48.70055" lon="1.75313">
        <ele>173.19999694824</ele>
        <time>2011-09-22T08:08:10.000Z</time>
      </trkpt>
      <trkpt lat="48.70072" lon="1.75304">
        <ele>173.80000305176</ele>
        <time>2011-09-22T08:08:15.000Z</time>
      </trkpt>
      <trkpt lat="48.70084" lon="1.75296">
        <ele>174.19999694824</ele>
        <time>2011-09-22T08:08:19.000Z</time>
      </trkpt>
      <trkpt lat="48.70105" lon="1.75284">
        <ele>175</ele>
        <time>2011-09-22T08:08:25.000Z</time>
      </trkpt>
      <trkpt lat="48.70112" lon="1.7528">
        <ele>175.19999694824</ele>
        <time>2011-09-22T08:08:29.000Z</time>
      </trkpt>
      <trkpt lat="48.7012" lon="1.75275">
        <ele>175.39999389648</ele>
        <time>2011-09-22T08:08:35.000Z</time>
      </trkpt>
      <trkpt lat="48.70122" lon="1.75274">
        <ele>175.39999389648</ele>
        <time>2011-09-22T08:08:36.000Z</time>
      </trkpt>
      <trkpt lat="48.70131" lon="1.7527">
        <ele>175.60000610352</ele>
        <time>2011-09-22T08:08:41.000Z</time>
      </trkpt>
      <trkpt lat="48.70143" lon="1.75269">
        <ele>175.80000305176</ele>
        <time>2011-09-22T08:08:48.000Z</time>
      </trkpt>
      <trkpt lat="48.70146" lon="1.75268">
        <ele>175.80000305176</ele>
        <time>2011-09-22T08:08:50.000Z</time>
      </trkpt>
      <trkpt lat="48.7015" lon="1.75262">
        <ele>175.80000305176</ele>
        <time>2011-09-22T08:08:54.000Z</time>
      </trkpt>
      <trkpt lat="48.70158" lon="1.75258">
        <ele>175.80000305176</ele>
        <time>2011-09-22T08:09:01.000Z</time>
      </trkpt>
      <trkpt lat="48.70168" lon="1.75255">
        <ele>176</ele>
        <time>2011-09-22T08:09:08.000Z</time>
      </trkpt>
      <trkpt lat="48.7018" lon="1.7525">
        <ele>176.60000610352</ele>
        <time>2011-09-22T08:09:16.000Z</time>
      </trkpt>
      <trkpt lat="48.70189" lon="1.75244">
        <ele>177</ele>
        <time>2011-09-22T08:09:22.000Z</time>
      </trkpt>
      <trkpt lat="48.70193" lon="1.75243">
        <ele>177.19999694824</ele>
        <time>2011-09-22T08:09:25.000Z</time>
      </trkpt>
      <trkpt lat="48.702" lon="1.7524">
        <ele>177.39999389648</ele>
        <time>2011-09-22T08:09:30.000Z</time>
      </trkpt>
      <trkpt lat="48.70208" lon="1.75238">
        <ele>177.80000305176</ele>
        <time>2011-09-22T08:09:37.000Z</time>
      </trkpt>
      <trkpt lat="48.70216" lon="1.75239">
        <ele>178.19999694824</ele>
        <time>2011-09-22T08:09:43.000Z</time>
      </trkpt>
      <trkpt lat="48.70224" lon="1.75243">
        <ele>178.60000610352</ele>
        <time>2011-09-22T08:09:51.000Z</time>
      </trkpt>
      <trkpt lat="48.70225" lon="1.75245">
        <ele>178.60000610352</ele>
        <time>2011-09-22T08:09:53.000Z</time>
      </trkpt>
      <trkpt lat="48.70234" lon="1.7525">
        <ele>179.19999694824</ele>
        <time>2011-09-22T08:10:00.000Z</time>
      </trkpt>
      <trkpt lat="48.70241" lon="1.75257">
        <ele>179.39999389648</ele>
        <time>2011-09-22T08:10:06.000Z</time>
      </trkpt>
      <trkpt lat="48.70251" lon="1.75266">
        <ele>179.80000305176</ele>
        <time>2011-09-22T08:10:15.000Z</time>
      </trkpt>
      <trkpt lat="48.70257" lon="1.75272">
        <ele>179.80000305176</ele>
        <time>2011-09-22T08:10:21.000Z</time>
      </trkpt>
      <trkpt lat="48.70268" lon="1.75279">
        <ele>180</ele>
        <time>2011-09-22T08:10:28.000Z</time>
      </trkpt>
      <trkpt lat="48.70271" lon="1.7528">
        <ele>180</ele>
        <time>2011-09-22T08:10:30.000Z</time>
      </trkpt>
      <trkpt lat="48.70281" lon="1.75289">
        <ele>180.19999694824</ele>
        <time>2011-09-22T08:10:39.000Z</time>
      </trkpt>
      <trkpt lat="48.70283" lon="1.7529">
        <ele>180.19999694824</ele>
        <time>2011-09-22T08:10:41.000Z</time>
      </trkpt>
      <trkpt lat="48.7029" lon="1.753">
        <ele>180.19999694824</ele>
        <time>2011-09-22T08:10:48.000Z</time>
      </trkpt>
      <trkpt lat="48.70297" lon="1.75311">
        <ele>180.19999694824</ele>
        <time>2011-09-22T08:10:55.000Z</time>
      </trkpt>
      <trkpt lat="48.70299" lon="1.7532">
        <ele>180.19999694824</ele>
        <time>2011-09-22T08:10:59.000Z</time>
      </trkpt>
      <trkpt lat="48.70303" lon="1.75328">
        <ele>180.19999694824</ele>
        <time>2011-09-22T08:11:03.000Z</time>
      </trkpt>
      <trkpt lat="48.70308" lon="1.75334">
        <ele>180.19999694824</ele>
        <time>2011-09-22T08:11:07.000Z</time>
      </trkpt>
      <trkpt lat="48.70316" lon="1.75346">
        <ele>180.39999389648</ele>
        <time>2011-09-22T08:11:15.000Z</time>
      </trkpt>
      <trkpt lat="48.70318" lon="1.75349">
        <ele>180.39999389648</ele>
        <time>2011-09-22T08:11:17.000Z</time>
      </trkpt>
      <trkpt lat="48.70327" lon="1.75352">
        <ele>180.80000305176</ele>
        <time>2011-09-22T08:11:24.000Z</time>
      </trkpt>
      <trkpt lat="48.70333" lon="1.75355">
        <ele>180.80000305176</ele>
        <time>2011-09-22T08:11:29.000Z</time>
      </trkpt>
      <trkpt lat="48.70335" lon="1.75357">
        <ele>180.80000305176</ele>
        <time>2011-09-22T08:11:31.000Z</time>
      </trkpt>
      <trkpt lat="48.70342" lon="1.75366">
        <ele>180.80000305176</ele>
        <time>2011-09-22T08:11:38.000Z</time>
      </trkpt>
      <trkpt lat="48.70348" lon="1.75375">
        <ele>180.80000305176</ele>
        <time>2011-09-22T08:11:45.000Z</time>
      </trkpt>
      <trkpt lat="48.7035" lon="1.75379">
        <ele>180.80000305176</ele>
        <time>2011-09-22T08:11:48.000Z</time>
      </trkpt>
      <trkpt lat="48.70361" lon="1.75388">
        <ele>180.80000305176</ele>
        <time>2011-09-22T08:11:56.000Z</time>
      </trkpt>
      <trkpt lat="48.70365" lon="1.75392">
        <ele>180.80000305176</ele>
        <time>2011-09-22T08:12:00.000Z</time>
      </trkpt>
      <trkpt lat="48.70372" lon="1.75399">
        <ele>181</ele>
        <time>2011-09-22T08:12:07.000Z</time>
      </trkpt>
      <trkpt lat="48.7038" lon="1.75399">
        <ele>181</ele>
        <time>2011-09-22T08:12:15.000Z</time>
      </trkpt>
      <trkpt lat="48.70383" lon="1.75397">
        <ele>181</ele>
        <time>2011-09-22T08:12:18.000Z</time>
      </trkpt>
      <trkpt lat="48.70391" lon="1.75394">
        <ele>180.80000305176</ele>
        <time>2011-09-22T08:12:24.000Z</time>
      </trkpt>
      <trkpt lat="48.70392" lon="1.75397">
        <ele>181</ele>
        <time>2011-09-22T08:12:26.000Z</time>
      </trkpt>
      <trkpt lat="48.70399" lon="1.75406">
        <ele>181.19999694824</ele>
        <time>2011-09-22T08:12:32.000Z</time>
      </trkpt>
      <trkpt lat="48.70406" lon="1.7541">
        <ele>181.60000610352</ele>
        <time>2011-09-22T08:12:37.000Z</time>
      </trkpt>
      <trkpt lat="48.70413" lon="1.75418">
        <ele>181.80000305176</ele>
        <time>2011-09-22T08:12:44.000Z</time>
      </trkpt>
      <trkpt lat="48.70423" lon="1.75424">
        <ele>181.60000610352</ele>
        <time>2011-09-22T08:12:52.000Z</time>
      </trkpt>
      <trkpt lat="48.70431" lon="1.75429">
        <ele>181.19999694824</ele>
        <time>2011-09-22T08:12:58.000Z</time>
      </trkpt>
      <trkpt lat="48.70432" lon="1.7543">
        <ele>181.19999694824</ele>
        <time>2011-09-22T08:12:59.000Z</time>
      </trkpt>
      <trkpt lat="48.7044" lon="1.75436">
        <ele>181</ele>
        <time>2011-09-22T08:13:06.000Z</time>
      </trkpt>
      <trkpt lat="48.70441" lon="1.75438">
        <ele>180.80000305176</ele>
        <time>2011-09-22T08:13:07.000Z</time>
      </trkpt>
      <trkpt lat="48.70447" lon="1.75442">
        <ele>180.60000610352</ele>
        <time>2011-09-22T08:13:12.000Z</time>
      </trkpt>
      <trkpt lat="48.70456" lon="1.7545">
        <ele>180.39999389648</ele>
        <time>2011-09-22T08:13:19.000Z</time>
      </trkpt>
      <trkpt lat="48.70461" lon="1.75455">
        <ele>180.39999389648</ele>
        <time>2011-09-22T08:13:24.000Z</time>
      </trkpt>
      <trkpt lat="48.70463" lon="1.75457">
        <ele>180.39999389648</ele>
        <time>2011-09-22T08:13:26.000Z</time>
      </trkpt>
      <trkpt lat="48.70465" lon="1.75461">
        <ele>180.39999389648</ele>
        <time>2011-09-22T08:13:29.000Z</time>
      </trkpt>
      <trkpt lat="48.70467" lon="1.75463">
        <ele>180.39999389648</ele>
        <time>2011-09-22T08:13:31.000Z</time>
      </trkpt>
      <trkpt lat="48.70469" lon="1.75466">
        <ele>180.39999389648</ele>
        <time>2011-09-22T08:13:33.000Z</time>
      </trkpt>
      <trkpt lat="48.70477" lon="1.75474">
        <ele>180.39999389648</ele>
        <time>2011-09-22T08:13:40.000Z</time>
      </trkpt>
      <trkpt lat="48.70484" lon="1.75481">
        <ele>180.39999389648</ele>
        <time>2011-09-22T08:13:46.000Z</time>
      </trkpt>
      <trkpt lat="48.70491" lon="1.75489">
        <ele>180.60000610352</ele>
        <time>2011-09-22T08:13:52.000Z</time>
      </trkpt>
      <trkpt lat="48.70498" lon="1.75491">
        <ele>180.39999389648</ele>
        <time>2011-09-22T08:13:57.000Z</time>
      </trkpt>
      <trkpt lat="48.70507" lon="1.755">
        <ele>180.39999389648</ele>
        <time>2011-09-22T08:14:03.000Z</time>
      </trkpt>
      <trkpt lat="48.70508" lon="1.75502">
        <ele>180.39999389648</ele>
        <time>2011-09-22T08:14:04.000Z</time>
      </trkpt>
      <trkpt lat="48.70513" lon="1.75506">
        <ele>180.19999694824</ele>
        <time>2011-09-22T08:14:08.000Z</time>
      </trkpt>
      <trkpt lat="48.70521" lon="1.75514">
        <ele>180</ele>
        <time>2011-09-22T08:14:15.000Z</time>
      </trkpt>
      <trkpt lat="48.70524" lon="1.75519">
        <ele>180.19999694824</ele>
        <time>2011-09-22T08:14:20.000Z</time>
      </trkpt>
      <trkpt lat="48.70527" lon="1.75522">
        <ele>180.19999694824</ele>
        <time>2011-09-22T08:14:22.000Z</time>
      </trkpt>
      <trkpt lat="48.70533" lon="1.75531">
        <ele>180.39999389648</ele>
        <time>2011-09-22T08:14:29.000Z</time>
      </trkpt>
      <trkpt lat="48.70542" lon="1.75542">
        <ele>180.60000610352</ele>
        <time>2011-09-22T08:14:37.000Z</time>
      </trkpt>
      <trkpt lat="48.7055" lon="1.75551">
        <ele>181</ele>
        <time>2011-09-22T08:14:44.000Z</time>
      </trkpt>
      <trkpt lat="48.70554" lon="1.75554">
        <ele>181</ele>
        <time>2011-09-22T08:14:47.000Z</time>
      </trkpt>
      <trkpt lat="48.70563" lon="1.75565">
        <ele>181.60000610352</ele>
        <time>2011-09-22T08:14:55.000Z</time>
      </trkpt>
      <trkpt lat="48.70566" lon="1.75567">
        <ele>181.80000305176</ele>
        <time>2011-09-22T08:14:57.000Z</time>
      </trkpt>
      <trkpt lat="48.70575" lon="1.75576">
        <ele>182.39999389648</ele>
        <time>2011-09-22T08:15:05.000Z</time>
      </trkpt>
      <trkpt lat="48.70577" lon="1.75579">
        <ele>182.60000610352</ele>
        <time>2011-09-22T08:15:07.000Z</time>
      </trkpt>
      <trkpt lat="48.70587" lon="1.75591">
        <ele>182.80000305176</ele>
        <time>2011-09-22T08:15:15.000Z</time>
      </trkpt>
      <trkpt lat="48.70589" lon="1.75594">
        <ele>182.60000610352</ele>
        <time>2011-09-22T08:15:17.000Z</time>
      </trkpt>
      <trkpt lat="48.70592" lon="1.75599">
        <ele>182.39999389648</ele>
        <time>2011-09-22T08:15:21.000Z</time>
      </trkpt>
      <trkpt lat="48.70601" lon="1.75614">
        <ele>181.80000305176</ele>
        <time>2011-09-22T08:15:30.000Z</time>
      </trkpt>
      <trkpt lat="48.70603" lon="1.75619">
        <ele>181.60000610352</ele>
        <time>2011-09-22T08:15:33.000Z</time>
      </trkpt>
      <trkpt lat="48.7061" lon="1.75627">
        <ele>181</ele>
        <time>2011-09-22T08:15:39.000Z</time>
      </trkpt>
      <trkpt lat="48.70614" lon="1.75631">
        <ele>180.60000610352</ele>
        <time>2011-09-22T08:15:42.000Z</time>
      </trkpt>
      <trkpt lat="48.70625" lon="1.75642">
        <ele>179.60000610352</ele>
        <time>2011-09-22T08:15:51.000Z</time>
      </trkpt>
      <trkpt lat="48.70631" lon="1.75653">
        <ele>179</ele>
        <time>2011-09-22T08:15:58.000Z</time>
      </trkpt>
      <trkpt lat="48.70631" lon="1.75653">
        <ele>179</ele>
        <time>2011-09-22T08:15:59.000Z</time>
      </trkpt>
      <trkpt lat="48.70632" lon="1.75655">
        <ele>178.80000305176</ele>
        <time>2011-09-22T08:16:02.000Z</time>
      </trkpt>
      <trkpt lat="48.70635" lon="1.75653">
        <ele>178.60000610352</ele>
        <time>2011-09-22T08:16:05.000Z</time>
      </trkpt>
      <trkpt lat="48.70638" lon="1.75655">
        <ele>178.19999694824</ele>
        <time>2011-09-22T08:16:09.000Z</time>
      </trkpt>
    </trkseg>
  </trk>
</gpx>